sensor_id;sensor_type;location;lat;lon;timestamp;pressure;altitude;pressure_sealevel;temperature;humidity
61963;BME280;47927;42.646;23.096;2023-04-02T00:11:46;91324.84;;;5.47;59.48
61963;BME280;47927;42.646;23.096;2023-04-02T00:14:30;91297.31;;;5.32;60.35
61963;BME280;47927;42.646;23.096;2023-04-02T00:16:59;91326.63;;;5.70;59.59
61963;BME280;47927;42.646;23.096;2023-04-02T00:19:52;91320.31;;;5.67;59.06
61963;BME280;47927;42.646;23.096;2023-04-02T00:22:23;91312.22;;;5.69;57.96
61963;BME280;47927;42.646;23.096;2023-04-02T00:24:52;91310.56;;;5.54;58.26
61963;BME280;47927;42.646;23.096;2023-04-02T00:27:18;91256.34;;;5.04;59.10
61963;BME280;47927;42.646;23.096;2023-04-02T00:29:50;91302.78;;;5.27;59.31
61963;BME280;47927;42.646;23.096;2023-04-02T00:32:20;91310.53;;;5.27;59.14
61963;BME280;47927;42.646;23.096;2023-04-02T00:34:47;91304.28;;;5.05;60.34
61963;BME280;47927;42.646;23.096;2023-04-02T00:37:19;91299.47;;;5.27;59.85
61963;BME280;47927;42.646;23.096;2023-04-02T00:39:50;91299.53;;;5.07;60.06
61963;BME280;47927;42.646;23.096;2023-04-02T00:42:17;91301.13;;;4.46;62.17
61963;BME280;47927;42.646;23.096;2023-04-02T00:44:44;91296.75;;;4.50;62.60
61963;BME280;47927;42.646;23.096;2023-04-02T00:47:17;91299.00;;;4.75;62.26
61963;BME280;47927;42.646;23.096;2023-04-02T00:49:44;91291.22;;;4.94;61.57
61963;BME280;47927;42.646;23.096;2023-04-02T00:52:12;91225.72;;;4.10;62.70
61963;BME280;47927;42.646;23.096;2023-04-02T00:54:44;91180.44;;;3.71;63.35
61963;BME280;47927;42.646;23.096;2023-04-02T00:57:18;91269.00;;;4.67;62.61
61963;BME280;47927;42.646;23.096;2023-04-02T00:59:54;91292.28;;;4.93;61.87
61963;BME280;47927;42.646;23.096;2023-04-02T01:02:32;91139.22;;;3.90;61.69
61963;BME280;47927;42.646;23.096;2023-04-02T01:07:54;91295.09;;;5.31;60.34
61963;BME280;47927;42.646;23.096;2023-04-02T01:10:33;91296.38;;;4.94;61.27
61963;BME280;47927;42.646;23.096;2023-04-02T01:15:41;91272.97;;;4.84;61.84
61963;BME280;47927;42.646;23.096;2023-04-02T01:26:39;91240.25;;;4.65;61.78
61963;BME280;47927;42.646;23.096;2023-04-02T01:31:46;91212.66;;;4.92;60.66
61963;BME280;47927;42.646;23.096;2023-04-02T01:34:16;91305.88;;;5.63;60.05
61963;BME280;47927;42.646;23.096;2023-04-02T01:37:01;91295.47;;;5.06;61.15
61963;BME280;47927;42.646;23.096;2023-04-02T01:42:19;91209.94;;;4.58;61.56
61963;BME280;47927;42.646;23.096;2023-04-02T01:44:49;91292.34;;;5.46;60.31
61963;BME280;47927;42.646;23.096;2023-04-02T01:47:18;91302.63;;;5.43;60.20
61963;BME280;47927;42.646;23.096;2023-04-02T01:49:44;91304.06;;;5.14;60.94
61963;BME280;47927;42.646;23.096;2023-04-02T01:52:24;91211.22;;;4.94;59.94
61963;BME280;47927;42.646;23.096;2023-04-02T01:54:51;91299.69;;;5.71;59.61
61963;BME280;47927;42.646;23.096;2023-04-02T01:57:17;91297.38;;;5.62;59.70
61963;BME280;47927;42.646;23.096;2023-04-02T01:59:44;91272.50;;;5.01;60.43
61963;BME280;47927;42.646;23.096;2023-04-02T02:02:11;91296.97;;;5.60;59.75
61963;BME280;47927;42.646;23.096;2023-04-02T02:04:39;91224.31;;;4.82;60.42
61963;BME280;47927;42.646;23.096;2023-04-02T02:07:13;91280.59;;;4.99;61.61
61963;BME280;47927;42.646;23.096;2023-04-02T02:09:40;91288.97;;;5.16;62.18
61963;BME280;47927;42.646;23.096;2023-04-02T02:12:06;91207.28;;;5.04;60.51
61963;BME280;47927;42.646;23.096;2023-04-02T02:14:35;91298.69;;;5.26;61.02
61963;BME280;47927;42.646;23.096;2023-04-02T02:17:01;91294.72;;;4.83;62.39
61963;BME280;47927;42.646;23.096;2023-04-02T02:19:37;91231.13;;;4.71;62.89
61963;BME280;47927;42.646;23.096;2023-04-02T02:24:37;91306.25;;;5.38;61.95
61963;BME280;47927;42.646;23.096;2023-04-02T02:29:53;91298.88;;;5.63;61.90
61963;BME280;47927;42.646;23.096;2023-04-02T02:32:21;91245.56;;;4.98;62.13
61963;BME280;47927;42.646;23.096;2023-04-02T02:34:55;91216.72;;;5.19;61.13
61963;BME280;47927;42.646;23.096;2023-04-02T02:37:27;91230.41;;;5.50;60.08
61963;BME280;47927;42.646;23.096;2023-04-02T02:39:56;91292.75;;;5.75;59.68
61963;BME280;47927;42.646;23.096;2023-04-02T02:42:31;91293.53;;;5.79;60.16
61963;BME280;47927;42.646;23.096;2023-04-02T02:45:00;91292.28;;;5.96;59.40
61963;BME280;47927;42.646;23.096;2023-04-02T02:47:28;91287.75;;;5.89;59.45
61963;BME280;47927;42.646;23.096;2023-04-02T02:50:01;91287.94;;;6.04;59.18
61963;BME280;47927;42.646;23.096;2023-04-02T02:52:31;91285.19;;;6.20;58.69
61963;BME280;47927;42.646;23.096;2023-04-02T02:55:10;91235.31;;;5.89;58.36
61963;BME280;47927;42.646;23.096;2023-04-02T02:58:05;91296.13;;;6.39;58.05
61963;BME280;47927;42.646;23.096;2023-04-02T03:00:38;91244.38;;;6.06;57.79
61963;BME280;47927;42.646;23.096;2023-04-02T03:03:15;91259.75;;;6.25;57.36
61963;BME280;47927;42.646;23.096;2023-04-02T03:05:43;91286.78;;;6.31;57.24
61963;BME280;47927;42.646;23.096;2023-04-02T03:08:31;91238.94;;;5.84;57.58
61963;BME280;47927;42.646;23.096;2023-04-02T03:11:09;91191.22;;;5.44;57.94
61963;BME280;47927;42.646;23.096;2023-04-02T03:13:39;91271.31;;;5.75;59.09
61963;BME280;47927;42.646;23.096;2023-04-02T03:18:56;91248.00;;;5.41;59.23
61963;BME280;47927;42.646;23.096;2023-04-02T03:23:59;91250.44;;;5.87;58.36
61963;BME280;47927;42.646;23.096;2023-04-02T03:26:30;91298.53;;;6.25;57.58
61963;BME280;47927;42.646;23.096;2023-04-02T03:29:14;91243.84;;;5.63;57.91
61963;BME280;47927;42.646;23.096;2023-04-02T03:31:46;91278.22;;;5.93;57.79
61963;BME280;47927;42.646;23.096;2023-04-02T03:37:47;91310.09;;;5.75;58.64
61963;BME280;47927;42.646;23.096;2023-04-02T03:40:21;91305.97;;;5.97;58.00
61963;BME280;47927;42.646;23.096;2023-04-02T03:42:57;91294.94;;;6.03;57.29
61963;BME280;47927;42.646;23.096;2023-04-02T03:45:32;91216.22;;;5.37;57.32
61963;BME280;47927;42.646;23.096;2023-04-02T03:48:06;91242.97;;;5.25;57.91
61963;BME280;47927;42.646;23.096;2023-04-02T03:50:59;91258.19;;;5.03;59.23
61963;BME280;47927;42.646;23.096;2023-04-02T03:53:25;91301.66;;;4.78;61.51
61963;BME280;47927;42.646;23.096;2023-04-02T03:55:52;91232.88;;;4.21;61.78
61963;BME280;47927;42.646;23.096;2023-04-02T03:58:28;91226.94;;;4.17;62.12
61963;BME280;47927;42.646;23.096;2023-04-02T04:01:08;91301.25;;;4.76;61.98
61963;BME280;47927;42.646;23.096;2023-04-02T04:03:54;91285.69;;;4.50;61.79
61963;BME280;47927;42.646;23.096;2023-04-02T04:06:24;91184.00;;;4.05;61.23
61963;BME280;47927;42.646;23.096;2023-04-02T04:08:56;91302.81;;;5.04;60.56
61963;BME280;47927;42.646;23.096;2023-04-02T04:11:27;91232.97;;;4.47;60.73
61963;BME280;47927;42.646;23.096;2023-04-02T04:14:02;91316.56;;;4.89;60.70
61963;BME280;47927;42.646;23.096;2023-04-02T04:16:38;91320.63;;;5.13;60.04
61963;BME280;47927;42.646;23.096;2023-04-02T04:19:22;91309.53;;;5.09;60.10
61963;BME280;47927;42.646;23.096;2023-04-02T04:21:50;91253.31;;;4.52;60.79
61963;BME280;47927;42.646;23.096;2023-04-02T04:24:23;91311.16;;;5.20;59.98
61963;BME280;47927;42.646;23.096;2023-04-02T04:27:17;91278.94;;;5.11;59.89
61963;BME280;47927;42.646;23.096;2023-04-02T04:30:05;91321.75;;;5.38;58.81
61963;BME280;47927;42.646;23.096;2023-04-02T04:32:44;91249.63;;;4.99;58.67
61963;BME280;47927;42.646;23.096;2023-04-02T04:35:37;91325.09;;;5.65;58.38
61963;BME280;47927;42.646;23.096;2023-04-02T04:40:44;91292.81;;;6.43;55.87
61963;BME280;47927;42.646;23.096;2023-04-02T04:43:20;91332.84;;;8.66;50.87
61963;BME280;47927;42.646;23.096;2023-04-02T04:45:55;91251.69;;;10.43;45.63
61963;BME280;47927;42.646;23.096;2023-04-02T04:48:27;91328.34;;;13.35;41.29
61963;BME280;47927;42.646;23.096;2023-04-02T04:50:59;91336.44;;;15.15;39.22
61963;BME280;47927;42.646;23.096;2023-04-02T04:53:28;91340.56;;;16.14;36.32
61963;BME280;47927;42.646;23.096;2023-04-02T04:55:58;91273.91;;;16.08;34.71
61963;BME280;47927;42.646;23.096;2023-04-02T04:58:39;91284.34;;;17.34;32.52
61963;BME280;47927;42.646;23.096;2023-04-02T05:01:22;91338.41;;;18.11;31.86
61963;BME280;47927;42.646;23.096;2023-04-02T05:04:15;91336.19;;;18.10;32.59
61963;BME280;47927;42.646;23.096;2023-04-02T05:07:06;91330.13;;;19.63;29.53
61963;BME280;47927;42.646;23.096;2023-04-02T05:09:54;91337.75;;;20.93;28.48
61963;BME280;47927;42.646;23.096;2023-04-02T05:12:38;91299.06;;;21.48;28.25
61963;BME280;47927;42.646;23.096;2023-04-02T05:15:17;91341.94;;;22.27;26.95
61963;BME280;47927;42.646;23.096;2023-04-02T05:20:47;91347.00;;;22.64;26.97
61963;BME280;47927;42.646;23.096;2023-04-02T05:23:26;91359.56;;;22.40;27.12
61963;BME280;47927;42.646;23.096;2023-04-02T05:26:15;91339.00;;;22.01;28.37
61963;BME280;47927;42.646;23.096;2023-04-02T05:28:57;91358.47;;;22.70;27.42
61963;BME280;47927;42.646;23.096;2023-04-02T05:31:35;91176.53;;;21.53;26.72
61963;BME280;47927;42.646;23.096;2023-04-02T05:34:02;91362.41;;;22.90;26.09
61963;BME280;47927;42.646;23.096;2023-04-02T05:36:30;91364.06;;;20.51;28.15
61963;BME280;47927;42.646;23.096;2023-04-02T05:38:59;91363.16;;;18.27;31.66
61963;BME280;47927;42.646;23.096;2023-04-02T05:41:36;91366.78;;;17.30;32.83
61963;BME280;47927;42.646;23.096;2023-04-02T05:47:03;91345.16;;;15.44;35.65
61963;BME280;47927;42.646;23.096;2023-04-02T05:49:32;91369.63;;;15.21;36.41
61963;BME280;47927;42.646;23.096;2023-04-02T05:52:01;91336.78;;;14.97;36.98
61963;BME280;47927;42.646;23.096;2023-04-02T05:54:33;91323.47;;;15.24;36.87
61963;BME280;47927;42.646;23.096;2023-04-02T05:57:04;91369.28;;;18.24;34.50
61963;BME280;47927;42.646;23.096;2023-04-02T06:02:35;91370.28;;;25.57;23.88
61963;BME280;47927;42.646;23.096;2023-04-02T06:05:23;91379.03;;;26.81;21.36
61963;BME280;47927;42.646;23.096;2023-04-02T06:10:30;91373.41;;;30.00;17.98
61963;BME280;47927;42.646;23.096;2023-04-02T06:12:57;91376.66;;;31.48;16.78
61963;BME280;47927;42.646;23.096;2023-04-02T06:15:33;91353.56;;;32.17;15.97
61963;BME280;47927;42.646;23.096;2023-04-02T06:18:08;91380.78;;;33.33;15.15
61963;BME280;47927;42.646;23.096;2023-04-02T06:20:38;91380.72;;;32.99;12.93
61963;BME280;47927;42.646;23.096;2023-04-02T06:25:42;91377.91;;;34.57;12.28
61963;BME280;47927;42.646;23.096;2023-04-02T06:28:20;91347.25;;;33.49;12.52
61963;BME280;47927;42.646;23.096;2023-04-02T06:30:52;91376.56;;;32.98;13.34
61963;BME280;47927;42.646;23.096;2023-04-02T06:33:20;91370.97;;;33.98;12.40
61963;BME280;47927;42.646;23.096;2023-04-02T06:35:49;91372.09;;;33.48;11.60
61963;BME280;47927;42.646;23.096;2023-04-02T06:38:53;91374.09;;;33.47;12.02
61963;BME280;47927;42.646;23.096;2023-04-02T06:41:59;91389.13;;;31.64;13.53
61963;BME280;47927;42.646;23.096;2023-04-02T06:44:40;91379.59;;;32.54;12.32
61963;BME280;47927;42.646;23.096;2023-04-02T06:47:27;91369.44;;;30.80;13.71
61963;BME280;47927;42.646;23.096;2023-04-02T06:50:02;91382.41;;;31.01;13.21
61963;BME280;47927;42.646;23.096;2023-04-02T06:56:21;91398.09;;;32.63;12.09
61963;BME280;47927;42.646;23.096;2023-04-02T06:58:48;91393.16;;;33.63;12.30
61963;BME280;47927;42.646;23.096;2023-04-02T07:01:16;91354.13;;;33.50;12.73
61963;BME280;47927;42.646;23.096;2023-04-02T07:03:44;91398.31;;;34.16;12.04
61963;BME280;47927;42.646;23.096;2023-04-02T07:06:27;91397.09;;;34.45;11.86
61963;BME280;47927;42.646;23.096;2023-04-02T07:08:56;91403.09;;;34.80;11.51
61963;BME280;47927;42.646;23.096;2023-04-02T07:11:22;91371.03;;;34.56;12.42
61963;BME280;47927;42.646;23.096;2023-04-02T07:13:51;91404.13;;;34.69;12.24
61963;BME280;47927;42.646;23.096;2023-04-02T07:16:22;91404.78;;;34.91;12.08
61963;BME280;47927;42.646;23.096;2023-04-02T07:18:50;91412.59;;;35.02;11.36
61963;BME280;47927;42.646;23.096;2023-04-02T07:21:17;91410.50;;;34.30;12.43
61963;BME280;47927;42.646;23.096;2023-04-02T07:23:43;91408.59;;;33.28;12.28
61963;BME280;47927;42.646;23.096;2023-04-02T07:26:14;91414.28;;;33.51;12.72
61963;BME280;47927;42.646;23.096;2023-04-02T07:28:41;91411.09;;;33.73;12.75
61963;BME280;47927;42.646;23.096;2023-04-02T07:31:33;91418.19;;;33.63;12.07
61963;BME280;47927;42.646;23.096;2023-04-02T07:33:59;91423.69;;;33.92;12.33
61963;BME280;47927;42.646;23.096;2023-04-02T07:36:27;91427.81;;;35.13;11.97
61963;BME280;47927;42.646;23.096;2023-04-02T07:38:53;91391.44;;;34.36;11.30
61963;BME280;47927;42.646;23.096;2023-04-02T07:41:19;91430.41;;;33.17;12.89
61963;BME280;47927;42.646;23.096;2023-04-02T07:43:45;91426.59;;;32.99;13.04
61963;BME280;47927;42.646;23.096;2023-04-02T07:46:11;91413.00;;;32.06;12.94
61963;BME280;47927;42.646;23.096;2023-04-02T07:48:41;91403.19;;;31.19;13.49
61963;BME280;47927;42.646;23.096;2023-04-02T07:51:19;91439.44;;;32.07;12.96
61963;BME280;47927;42.646;23.096;2023-04-02T07:53:45;91431.75;;;31.98;12.92
61963;BME280;47927;42.646;23.096;2023-04-02T07:56:16;91440.97;;;32.03;12.77
61963;BME280;47927;42.646;23.096;2023-04-02T07:58:42;91437.09;;;32.76;12.88
61963;BME280;47927;42.646;23.096;2023-04-02T08:01:28;91432.81;;;32.94;12.87
61963;BME280;47927;42.646;23.096;2023-04-02T08:03:59;91432.53;;;34.34;12.48
61963;BME280;47927;42.646;23.096;2023-04-02T08:06:25;91440.97;;;35.09;12.04
61963;BME280;47927;42.646;23.096;2023-04-02T08:08:51;91447.19;;;32.43;13.68
61963;BME280;47927;42.646;23.096;2023-04-02T08:11:16;91386.66;;;29.57;15.76
61963;BME280;47927;42.646;23.096;2023-04-02T08:13:42;91396.88;;;31.17;14.21
61963;BME280;47927;42.646;23.096;2023-04-02T08:16:08;91435.09;;;30.91;14.26
61963;BME280;47927;42.646;23.096;2023-04-02T08:18:34;91447.06;;;28.52;16.52
61963;BME280;47927;42.646;23.096;2023-04-02T08:21:01;91408.09;;;29.98;15.05
61963;BME280;47927;42.646;23.096;2023-04-02T08:23:27;91406.31;;;30.36;15.03
61963;BME280;47927;42.646;23.096;2023-04-02T08:25:53;91450.53;;;31.85;14.06
61963;BME280;47927;42.646;23.096;2023-04-02T08:28:20;91448.88;;;30.57;14.27
61963;BME280;47927;42.646;23.096;2023-04-02T08:30:47;91401.94;;;31.20;14.42
61963;BME280;47927;42.646;23.096;2023-04-02T08:33:17;91442.88;;;32.08;13.94
61963;BME280;47927;42.646;23.096;2023-04-02T08:35:45;91451.59;;;33.12;13.21
61963;BME280;47927;42.646;23.096;2023-04-02T08:38:15;91435.38;;;32.00;14.28
61963;BME280;47927;42.646;23.096;2023-04-02T08:40:44;91451.53;;;30.32;14.54
61963;BME280;47927;42.646;23.096;2023-04-02T08:48:46;91442.66;;;30.68;14.17
61963;BME280;47927;42.646;23.096;2023-04-02T08:51:24;91411.91;;;30.63;15.66
61963;BME280;47927;42.646;23.096;2023-04-02T08:53:53;91436.75;;;31.88;14.18
61963;BME280;47927;42.646;23.096;2023-04-02T08:56:42;91442.69;;;28.49;15.43
61963;BME280;47927;42.646;23.096;2023-04-02T08:59:18;91449.25;;;28.59;15.66
61963;BME280;47927;42.646;23.096;2023-04-02T09:02:01;91450.72;;;30.43;16.07
61963;BME280;47927;42.646;23.096;2023-04-02T09:04:32;91446.47;;;28.93;15.67
61963;BME280;47927;42.646;23.096;2023-04-02T09:06:58;91452.19;;;29.31;15.21
61963;BME280;47927;42.646;23.096;2023-04-02T09:09:25;91419.84;;;28.03;16.45
61963;BME280;47927;42.646;23.096;2023-04-02T09:11:59;91415.44;;;27.61;17.07
61963;BME280;47927;42.646;23.096;2023-04-02T09:14:49;91449.72;;;26.37;17.67
61963;BME280;47927;42.646;23.096;2023-04-02T09:17:20;91447.53;;;26.35;18.23
61963;BME280;47927;42.646;23.096;2023-04-02T09:20:22;91449.44;;;26.35;18.32
61963;BME280;47927;42.646;23.096;2023-04-02T09:22:50;91412.84;;;26.90;17.47
61963;BME280;47927;42.646;23.096;2023-04-02T09:25:27;91431.66;;;28.81;16.31
61963;BME280;47927;42.646;23.096;2023-04-02T09:28:00;91412.28;;;28.30;16.42
61963;BME280;47927;42.646;23.096;2023-04-02T09:30:49;91436.50;;;26.54;16.74
61963;BME280;47927;42.646;23.096;2023-04-02T09:33:18;91435.88;;;25.43;19.75
61963;BME280;47927;42.646;23.096;2023-04-02T09:38:21;91436.06;;;24.52;20.17
61963;BME280;47927;42.646;23.096;2023-04-02T09:43:23;91424.38;;;24.15;20.71
61963;BME280;47927;42.646;23.096;2023-04-02T09:48:48;91361.84;;;25.96;18.76
61963;BME280;47927;42.646;23.096;2023-04-02T09:51:21;91424.09;;;25.82;19.33
61963;BME280;47927;42.646;23.096;2023-04-02T09:54:05;91418.22;;;24.59;19.82
61963;BME280;47927;42.646;23.096;2023-04-02T09:56:33;91424.13;;;24.48;20.28
61963;BME280;47927;42.646;23.096;2023-04-02T10:01:45;91416.00;;;25.44;19.03
61963;BME280;47927;42.646;23.096;2023-04-02T10:04:39;91418.34;;;24.90;19.87
61963;BME280;47927;42.646;23.096;2023-04-02T10:07:29;91411.66;;;25.21;19.45
61963;BME280;47927;42.646;23.096;2023-04-02T10:10:00;91414.81;;;25.77;19.38
61963;BME280;47927;42.646;23.096;2023-04-02T10:12:28;91369.34;;;26.84;18.27
61963;BME280;47927;42.646;23.096;2023-04-02T10:14:55;91416.94;;;27.79;17.37
61963;BME280;47927;42.646;23.096;2023-04-02T10:17:31;91411.31;;;28.22;16.82
61963;BME280;47927;42.646;23.096;2023-04-02T10:20:05;91413.53;;;28.12;16.35
61963;BME280;47927;42.646;23.096;2023-04-02T10:22:36;91411.59;;;27.79;16.75
61963;BME280;47927;42.646;23.096;2023-04-02T10:25:01;91411.88;;;25.75;18.74
61963;BME280;47927;42.646;23.096;2023-04-02T10:32:45;91408.81;;;24.07;19.91
61963;BME280;47927;42.646;23.096;2023-04-02T10:38:12;91406.22;;;25.36;20.95
61963;BME280;47927;42.646;23.096;2023-04-02T10:41:34;91410.94;;;24.79;20.55
61963;BME280;47927;42.646;23.096;2023-04-02T10:51:58;91397.03;;;24.90;19.56
61963;BME280;47927;42.646;23.096;2023-04-02T10:54:49;91397.91;;;25.28;19.76
61963;BME280;47927;42.646;23.096;2023-04-02T10:59:48;91397.94;;;25.60;19.95
61963;BME280;47927;42.646;23.096;2023-04-02T11:05:19;91398.25;;;26.36;18.25
61963;BME280;47927;42.646;23.096;2023-04-02T11:08:09;91402.66;;;26.45;18.29
61963;BME280;47927;42.646;23.096;2023-04-02T11:10:45;91395.56;;;24.89;19.52
61963;BME280;47927;42.646;23.096;2023-04-02T11:13:21;91383.66;;;24.08;20.29
61963;BME280;47927;42.646;23.096;2023-04-02T11:15:49;91402.81;;;24.48;20.45
61963;BME280;47927;42.646;23.096;2023-04-02T11:18:29;91394.47;;;23.70;21.35
61963;BME280;47927;42.646;23.096;2023-04-02T11:21:02;91395.66;;;23.83;21.75
61963;BME280;47927;42.646;23.096;2023-04-02T11:23:31;91393.63;;;23.19;21.59
61963;BME280;47927;42.646;23.096;2023-04-02T11:29:26;91379.25;;;23.70;21.37
61963;BME280;47927;42.646;23.096;2023-04-02T11:32:12;91383.09;;;24.40;20.05
61963;BME280;47927;42.646;23.096;2023-04-02T11:37:40;91384.41;;;23.94;20.85
61963;BME280;47927;42.646;23.096;2023-04-02T11:42:43;91380.19;;;24.02;20.46
61963;BME280;47927;42.646;23.096;2023-04-02T11:50:40;91367.97;;;21.38;23.00
61963;BME280;47927;42.646;23.096;2023-04-02T11:55:36;91366.25;;;20.34;23.95
61963;BME280;47927;42.646;23.096;2023-04-02T12:09:23;91371.44;;;20.75;24.81
61963;BME280;47927;42.646;23.096;2023-04-02T12:11:52;91358.38;;;20.53;23.84
61963;BME280;47927;42.646;23.096;2023-04-02T12:14:29;91375.69;;;21.00;23.62
61963;BME280;47927;42.646;23.096;2023-04-02T12:16:55;91365.50;;;21.16;23.00
61963;BME280;47927;42.646;23.096;2023-04-02T12:19:22;91372.75;;;20.98;23.57
61963;BME280;47927;42.646;23.096;2023-04-02T12:21:50;91378.03;;;21.16;24.04
61963;BME280;47927;42.646;23.096;2023-04-02T12:24:20;91283.53;;;20.52;22.79
61963;BME280;47927;42.646;23.096;2023-04-02T12:26:46;91360.50;;;21.19;23.30
61963;BME280;47927;42.646;23.096;2023-04-02T12:29:16;91361.59;;;20.66;23.91
61963;BME280;47927;42.646;23.096;2023-04-02T12:31:46;91359.19;;;21.14;23.40
61963;BME280;47927;42.646;23.096;2023-04-02T12:34:17;91358.44;;;21.23;23.22
61963;BME280;47927;42.646;23.096;2023-04-02T12:36:54;91313.00;;;21.06;23.06
61963;BME280;47927;42.646;23.096;2023-04-02T12:39:21;91353.53;;;21.49;22.51
61963;BME280;47927;42.646;23.096;2023-04-02T12:41:47;91347.34;;;21.52;22.80
61963;BME280;47927;42.646;23.096;2023-04-02T12:44:20;91349.41;;;21.48;23.41
61963;BME280;47927;42.646;23.096;2023-04-02T12:46:47;91352.41;;;20.02;23.35
61963;BME280;47927;42.646;23.096;2023-04-02T12:49:22;91345.84;;;20.44;23.21
61963;BME280;47927;42.646;23.096;2023-04-02T12:51:49;91277.59;;;19.84;23.60
61963;BME280;47927;42.646;23.096;2023-04-02T12:54:17;91340.72;;;20.49;23.72
61963;BME280;47927;42.646;23.096;2023-04-02T12:56:45;91341.88;;;20.48;23.22
61963;BME280;47927;42.646;23.096;2023-04-02T12:59:34;91336.25;;;20.19;22.79
61963;BME280;47927;42.646;23.096;2023-04-02T13:02:13;91334.22;;;20.23;22.72
61963;BME280;47927;42.646;23.096;2023-04-02T13:04:51;91349.13;;;19.89;23.84
61963;BME280;47927;42.646;23.096;2023-04-02T13:07:19;91270.28;;;19.38;24.51
61963;BME280;47927;42.646;23.096;2023-04-02T13:09:53;91342.16;;;20.32;22.42
61963;BME280;47927;42.646;23.096;2023-04-02T13:12:37;91338.03;;;19.63;23.29
61963;BME280;47927;42.646;23.096;2023-04-02T13:15:19;91280.97;;;18.94;23.92
61963;BME280;47927;42.646;23.096;2023-04-02T13:18:00;91340.94;;;19.16;24.28
61963;BME280;47927;42.646;23.096;2023-04-02T13:20:27;91338.16;;;19.19;23.76
61963;BME280;47927;42.646;23.096;2023-04-02T13:22:53;91342.13;;;19.24;23.94
61963;BME280;47927;42.646;23.096;2023-04-02T13:25:22;91330.88;;;18.79;24.89
61963;BME280;47927;42.646;23.096;2023-04-02T13:27:49;91307.66;;;18.96;23.14
61963;BME280;47927;42.646;23.096;2023-04-02T13:30:21;91330.41;;;18.15;25.13
61963;BME280;47927;42.646;23.096;2023-04-02T13:32:47;91330.31;;;18.06;25.01
61963;BME280;47927;42.646;23.096;2023-04-02T13:35:13;91261.19;;;18.24;23.86
61963;BME280;47927;42.646;23.096;2023-04-02T13:37:38;91319.97;;;19.21;23.67
61963;BME280;47927;42.646;23.096;2023-04-02T13:40:05;91253.53;;;18.92;23.26
61963;BME280;47927;42.646;23.096;2023-04-02T13:42:33;91324.88;;;19.72;22.88
61963;BME280;47927;42.646;23.096;2023-04-02T13:44:59;91319.47;;;19.45;23.18
61963;BME280;47927;42.646;23.096;2023-04-02T13:47:24;91325.06;;;19.47;23.21
61963;BME280;47927;42.646;23.096;2023-04-02T13:49:50;91324.06;;;19.53;22.81
61963;BME280;47927;42.646;23.096;2023-04-02T13:52:16;91318.63;;;19.17;23.31
61963;BME280;47927;42.646;23.096;2023-04-02T13:54:50;91323.72;;;19.42;23.40
61963;BME280;47927;42.646;23.096;2023-04-02T13:57:17;91266.81;;;18.79;23.36
61963;BME280;47927;42.646;23.096;2023-04-02T13:59:43;91321.25;;;19.57;23.05
61963;BME280;47927;42.646;23.096;2023-04-02T14:02:12;91311.13;;;19.96;22.35
61963;BME280;47927;42.646;23.096;2023-04-02T14:04:47;91312.47;;;20.19;21.40
61963;BME280;47927;42.646;23.096;2023-04-02T14:13:24;91300.56;;;19.55;21.24
61963;BME280;47927;42.646;23.096;2023-04-02T14:18:46;91320.91;;;19.68;21.52
61963;BME280;47927;42.646;23.096;2023-04-02T14:24:17;91311.53;;;19.04;22.03
61963;BME280;47927;42.646;23.096;2023-04-02T14:32:05;91307.94;;;19.20;21.65
61963;BME280;47927;42.646;23.096;2023-04-02T14:43:15;91313.03;;;19.15;23.44
61963;BME280;47927;42.646;23.096;2023-04-02T14:46:00;91307.66;;;19.27;22.84
61963;BME280;47927;42.646;23.096;2023-04-02T14:48:31;91318.00;;;19.12;22.60
61963;BME280;47927;42.646;23.096;2023-04-02T14:51:51;91263.66;;;18.93;22.44
61963;BME280;47927;42.646;23.096;2023-04-02T14:56:24;91314.88;;;18.74;23.12
61963;BME280;47927;42.646;23.096;2023-04-02T14:59:04;91265.47;;;18.52;22.61
61963;BME280;47927;42.646;23.096;2023-04-02T15:01:39;91319.03;;;18.84;22.60
61963;BME280;47927;42.646;23.096;2023-04-02T15:04:11;91260.94;;;18.31;23.13
61963;BME280;47927;42.646;23.096;2023-04-02T15:06:44;91319.13;;;18.58;23.44
61963;BME280;47927;42.646;23.096;2023-04-02T15:09:19;91317.41;;;18.64;23.84
61963;BME280;47927;42.646;23.096;2023-04-02T15:11:58;91312.16;;;18.42;23.54
61963;BME280;47927;42.646;23.096;2023-04-02T15:14:45;91325.84;;;18.50;23.88
61963;BME280;47927;42.646;23.096;2023-04-02T15:17:12;91292.00;;;18.14;24.53
61963;BME280;47927;42.646;23.096;2023-04-02T15:19:38;91322.47;;;18.15;24.63
61963;BME280;47927;42.646;23.096;2023-04-02T15:22:10;91288.94;;;17.68;25.70
61963;BME280;47927;42.646;23.096;2023-04-02T15:27:47;91335.19;;;17.30;26.68
61963;BME280;47927;42.646;23.096;2023-04-02T15:30:21;91331.63;;;17.24;27.43
61963;BME280;47927;42.646;23.096;2023-04-02T15:32:49;91330.47;;;16.71;27.90
61963;BME280;47927;42.646;23.096;2023-04-02T15:43:44;91335.13;;;16.79;27.98
61963;BME280;47927;42.646;23.096;2023-04-02T15:55:00;91282.66;;;16.47;28.25
61963;BME280;47927;42.646;23.096;2023-04-02T15:57:44;91337.22;;;16.72;28.28
61963;BME280;47927;42.646;23.096;2023-04-02T16:03:15;91342.53;;;16.84;28.51
61963;BME280;47927;42.646;23.096;2023-04-02T16:08:57;91347.81;;;16.68;28.68
61963;BME280;47927;42.646;23.096;2023-04-02T16:11:26;91347.91;;;16.64;28.48
61963;BME280;47927;42.646;23.096;2023-04-02T16:14:14;91345.41;;;16.45;29.39
61963;BME280;47927;42.646;23.096;2023-04-02T16:16:42;91341.19;;;16.18;29.71
61963;BME280;47927;42.646;23.096;2023-04-02T16:19:33;91346.44;;;15.89;30.46
61963;BME280;47927;42.646;23.096;2023-04-02T16:22:21;91349.72;;;15.40;30.81
61963;BME280;47927;42.646;23.096;2023-04-02T16:24:54;91322.50;;;15.18;30.59
61963;BME280;47927;42.646;23.096;2023-04-02T16:27:33;91340.84;;;14.81;31.05
61963;BME280;47927;42.646;23.096;2023-04-02T16:33:15;91350.50;;;15.04;31.04